Time;durP1;ratioP1;P1;durP2;ratioP2;P2;SDS_P1;SDS_P2;PMS_P1;PMS_P2;Temp;Humidity;BMP_temperature;BMP_pressure;BME280_temperature;BME280_humidity;BME280_pressure;Samples;Min_cycle;Max_cycle;Signal;HPM_P1;HPM_P2
2023/09/10 04:01:25;;;;;;;7.30;6.70;;;16.60;99.90;;;;;;5476960;23;20549;-71
2023/09/10 04:03:52;;;;;;;7.90;7.10;;;16.60;99.90;;;;;;4931425;29;20534;-72
2023/09/10 04:06:19;;;;;;;7.83;7.03;;;16.60;99.90;;;;;;4929157;29;20460;-71
2023/09/10 04:08:46;;;;;;;6.30;5.80;;;16.60;99.90;;;;;;4934329;29;20781;-71
2023/09/10 04:11:12;;;;;;;6.97;6.27;;;16.60;99.90;;;;;;4925766;29;20525;-72
2023/09/10 04:13:39;;;;;;;7.37;6.73;;;16.50;99.90;;;;;;4949199;23;21042;-69
2023/09/10 04:16:06;;;;;;;6.47;5.93;;;16.50;99.90;;;;;;4954631;28;20462;-68
2023/09/10 04:18:34;;;;;;;8.10;7.40;;;16.50;99.90;;;;;;4954604;28;20458;-68
2023/09/10 04:21:03;;;;;;;7.80;7.20;;;16.50;99.90;;;;;;4954314;28;20460;-68
2023/09/10 04:23:30;;;;;;;6.87;6.37;;;16.40;99.90;;;;;;4949637;28;20908;-68
2023/09/10 04:25:57;;;;;;;7.97;7.30;;;16.40;99.90;;;;;;4934768;29;20469;-68
2023/09/10 04:28:24;;;;;;;7.87;6.20;;;16.40;99.90;;;;;;4918843;29;20460;-68
2023/09/10 04:30:50;;;;;;;8.70;7.80;;;16.40;99.90;;;;;;4915699;29;20834;-68
2023/09/10 04:33:17;;;;;;;7.40;6.63;;;16.40;99.90;;;;;;4915554;29;20505;-68
2023/09/10 04:35:50;;;;;;;6.87;6.37;;;16.40;99.90;;;;;;4920714;29;20947;-68
2023/09/10 04:38:17;;;;;;;5.57;5.27;;;16.40;99.90;;;;;;4927226;29;20469;-68
2023/09/10 04:40:43;;;;;;;7.00;6.20;;;16.30;99.90;;;;;;4933874;29;20804;-68
2023/09/10 04:43:10;;;;;;;6.50;5.97;;;16.30;99.90;;;;;;4915373;29;20474;-68
2023/09/10 04:45:37;;;;;;;7.57;6.87;;;16.30;99.90;;;;;;4915312;29;20467;-68
2023/09/10 04:48:04;;;;;;;7.03;6.37;;;16.30;99.90;;;;;;4915326;29;20461;-68
2023/09/10 04:50:31;;;;;;;8.70;7.90;;;16.30;99.90;;;;;;4914755;29;20490;-68
2023/09/10 04:53:00;;;;;;;7.70;7.00;;;16.30;99.90;;;;;;4914598;29;20499;-68
2023/09/10 04:55:27;;;;;;;9.07;7.60;;;16.30;99.90;;;;;;4914873;29;20971;-68
2023/09/10 04:57:54;;;;;;;7.37;6.77;;;16.30;99.90;;;;;;4915298;29;20459;-68
2023/09/10 05:00:20;;;;;;;7.47;6.77;;;16.30;99.90;;;;;;4915121;29;20478;-68
2023/09/10 05:02:47;;;;;;;7.80;7.13;;;16.30;99.90;;;;;;4914996;29;20469;-68
2023/09/10 05:05:14;;;;;;;8.07;6.80;;;16.30;99.90;;;;;;4921479;29;20498;-68
2023/09/10 05:07:41;;;;;;;8.20;7.50;;;16.30;99.90;;;;;;4914827;29;20474;-68
2023/09/10 05:10:11;;;;;;;8.03;7.40;;;16.30;99.90;;;;;;4914734;29;20476;-68
2023/09/10 05:12:37;;;;;;;8.03;7.20;;;16.30;99.90;;;;;;4914815;29;20492;-69
2023/09/10 05:15:05;;;;;;;8.83;8.03;;;16.30;99.90;;;;;;4923172;29;20491;-69
2023/09/10 05:17:32;;;;;;;6.90;6.30;;;16.30;99.90;;;;;;4927812;29;20475;-69
2023/09/10 05:19:58;;;;;;;6.80;6.20;;;16.40;99.90;;;;;;4914801;29;20468;-69
2023/09/10 05:22:25;;;;;;;8.77;7.87;;;16.40;99.90;;;;;;4914933;29;20463;-69
2023/09/10 05:24:52;;;;;;;8.27;7.43;;;16.40;99.90;;;;;;4915350;29;20488;-68
2023/09/10 05:27:20;;;;;;;7.20;6.50;;;16.40;99.90;;;;;;4927045;29;20500;-69
2023/09/10 05:29:47;;;;;;;7.87;7.17;;;16.50;99.90;;;;;;4923515;29;20475;-69
2023/09/10 05:32:13;;;;;;;8.30;7.60;;;16.50;99.90;;;;;;4924484;29;20498;-69
2023/09/10 05:34:40;;;;;;;8.17;7.43;;;16.60;99.90;;;;;;4931754;29;20496;-69
2023/09/10 05:37:07;;;;;;;8.57;7.87;;;16.60;99.90;;;;;;4915380;29;20484;-69
2023/09/10 05:39:33;;;;;;;9.30;8.40;;;16.70;99.90;;;;;;4927126;29;20471;-69
2023/09/10 05:42:00;;;;;;;8.90;7.20;;;16.70;99.90;;;;;;4925568;29;20486;-69
2023/09/10 05:44:28;;;;;;;7.73;7.03;;;16.80;99.90;;;;;;4921100;29;20499;-69
2023/09/10 05:46:55;;;;;;;7.53;6.90;;;16.90;99.90;;;;;;4916296;29;20473;-69
2023/09/10 05:49:21;;;;;;;9.00;8.20;;;16.90;99.90;;;;;;4919987;29;20555;-69
2023/09/10 05:51:48;;;;;;;9.27;8.43;;;17.00;99.90;;;;;;4924186;29;20491;-69
2023/09/10 05:54:15;;;;;;;7.70;7.00;;;17.00;99.90;;;;;;4930186;29;20488;-69
2023/09/10 05:56:42;;;;;;;9.07;7.63;;;17.10;99.90;;;;;;4926664;29;20496;-69
2023/09/10 05:59:08;;;;;;;9.03;8.13;;;17.20;99.90;;;;;;4928617;29;20502;-69
2023/09/10 06:01:36;;;;;;;7.30;6.73;;;17.30;99.90;;;;;;4929081;29;20471;-69
2023/09/10 06:04:03;;;;;;;8.23;7.43;;;17.30;99.90;;;;;;4930224;29;20488;-69
2023/09/10 06:06:30;;;;;;;7.93;7.20;;;17.40;99.90;;;;;;4930405;29;20551;-69
2023/09/10 06:08:57;;;;;;;8.97;8.23;;;17.50;99.90;;;;;;4925630;29;20879;-69
2023/09/10 06:11:23;;;;;;;7.87;7.10;;;17.50;99.90;;;;;;4926835;29;20472;-69
2023/09/10 06:13:50;;;;;;;9.23;8.23;;;17.60;99.90;;;;;;4933786;29;20608;-69
2023/09/10 06:16:17;;;;;;;8.33;7.40;;;17.70;99.90;;;;;;4925762;29;20461;-69
2023/09/10 06:18:45;;;;;;;9.40;8.47;;;17.80;99.90;;;;;;4935132;29;20473;-69
2023/09/10 06:21:11;;;;;;;23.77;15.90;;;17.90;99.90;;;;;;4925897;29;20466;-69
2023/09/10 06:23:38;;;;;;;31.27;18.53;;;18.10;99.90;;;;;;4932039;29;20998;-70
2023/09/10 06:26:05;;;;;;;34.03;20.47;;;18.20;99.90;;;;;;4926844;29;20467;-69
2023/09/10 06:28:32;;;;;;;32.37;16.00;;;18.30;99.90;;;;;;4925633;29;20966;-69
2023/09/10 06:30:58;;;;;;;36.13;18.20;;;18.40;99.90;;;;;;4925550;29;20527;-69
2023/09/10 06:33:25;;;;;;;26.70;16.27;;;18.40;99.90;;;;;;4925080;29;20499;-69
2023/09/10 06:35:53;;;;;;;26.70;15.70;;;18.40;99.90;;;;;;4932512;29;20473;-69
2023/09/10 06:38:21;;;;;;;27.70;15.00;;;18.50;99.90;;;;;;4921434;29;20471;-69
2023/09/10 06:40:48;;;;;;;29.10;15.93;;;18.50;99.90;;;;;;4923485;29;20950;-69
2023/09/10 06:43:15;;;;;;;27.77;15.23;;;18.50;99.90;;;;;;4928122;29;20499;-69
2023/09/10 06:45:43;;;;;;;32.17;16.40;;;18.60;99.90;;;;;;4928450;29;20477;-69
2023/09/10 06:48:10;;;;;;;27.20;15.37;;;18.60;99.90;;;;;;4931443;29;20465;-69
2023/09/10 06:50:36;;;;;;;23.53;14.60;;;18.60;99.90;;;;;;4925025;29;20471;-69
2023/09/10 06:53:04;;;;;;;22.80;13.17;;;18.60;99.90;;;;;;4929754;29;20487;-69
2023/09/10 06:55:31;;;;;;;24.63;13.90;;;18.60;99.90;;;;;;4924907;29;20549;-69
2023/09/10 06:57:58;;;;;;;23.23;12.57;;;18.60;99.90;;;;;;4931242;29;20831;-69
2023/09/10 07:00:24;;;;;;;24.30;13.50;;;18.60;99.90;;;;;;4927947;29;20473;-69
2023/09/10 07:02:51;;;;;;;18.07;11.03;;;18.50;99.90;;;;;;4928365;29;20501;-69
2023/09/10 07:05:18;;;;;;;27.37;12.50;;;18.50;99.90;;;;;;4929948;29;20562;-69
2023/09/10 07:07:45;;;;;;;24.93;13.30;;;18.40;99.90;;;;;;4917079;29;20467;-69
2023/09/10 07:10:13;;;;;;;23.97;13.00;;;18.50;99.90;;;;;;4927343;29;20471;-69
2023/09/10 07:12:40;;;;;;;22.77;12.40;;;18.60;99.90;;;;;;4933385;29;20492;-69
2023/09/10 07:15:07;;;;;;;27.57;12.57;;;18.60;99.90;;;;;;4935404;29;20489;-69
2023/09/10 07:17:34;;;;;;;27.60;14.10;;;18.60;99.90;;;;;;4927270;29;20482;-69
2023/09/10 07:20:01;;;;;;;25.47;12.17;;;18.70;99.90;;;;;;4928540;29;20475;-69
2023/09/10 07:22:27;;;;;;;25.87;14.03;;;18.70;99.90;;;;;;4930658;29;20498;-68
2023/09/10 07:24:54;;;;;;;23.20;11.80;;;18.80;99.90;;;;;;4935520;29;20519;-69
2023/09/10 07:27:22;;;;;;;28.20;14.00;;;18.80;99.90;;;;;;4934424;29;20469;-69
2023/09/10 07:29:49;;;;;;;27.57;14.83;;;18.80;99.90;;;;;;4921990;29;20903;-69
2023/09/10 07:32:16;;;;;;;32.90;15.00;;;18.80;99.90;;;;;;4929336;29;20575;-68
2023/09/10 07:34:42;;;;;;;31.27;14.10;;;18.80;99.90;;;;;;4930745;29;20497;-68
2023/09/10 07:37:09;;;;;;;32.50;15.20;;;18.80;99.90;;;;;;4918898;29;20469;-68
2023/09/10 07:39:36;;;;;;;27.73;14.87;;;18.80;99.90;;;;;;4929507;29;20817;-68
2023/09/10 07:42:03;;;;;;;27.37;13.20;;;18.80;99.90;;;;;;4924393;29;20482;-69
2023/09/10 07:44:31;;;;;;;29.60;14.57;;;18.80;99.90;;;;;;4930484;29;21035;-68
2023/09/10 07:46:57;;;;;;;27.03;14.73;;;18.80;99.90;;;;;;4916183;29;20473;-68
2023/09/10 07:49:24;;;;;;;24.40;13.20;;;18.90;99.90;;;;;;4915880;29;20479;-68
2023/09/10 07:51:51;;;;;;;25.90;14.07;;;19.00;99.90;;;;;;4922594;29;20479;-68
2023/09/10 07:54:17;;;;;;;36.80;15.23;;;19.00;99.90;;;;;;4915769;29;20503;-69
2023/09/10 07:56:45;;;;;;;29.60;14.07;;;19.00;99.90;;;;;;4917627;29;20837;-69
2023/09/10 07:59:12;;;;;;;32.47;14.43;;;19.10;99.90;;;;;;4933468;29;20566;-68
2023/09/10 08:01:40;;;;;;;38.47;15.20;;;19.10;99.90;;;;;;4929396;29;20817;-68
2023/09/10 08:04:07;;;;;;;34.17;16.00;;;19.20;99.90;;;;;;4933587;29;20491;-69
2023/09/10 08:06:34;;;;;;;41.03;15.17;;;19.20;99.90;;;;;;4922802;29;20469;-69
2023/09/10 08:09:01;;;;;;;33.27;15.90;;;19.30;99.90;;;;;;4925592;29;20497;-68
2023/09/10 08:11:28;;;;;;;41.77;17.57;;;19.30;99.90;;;;;;4922104;29;20550;-69
2023/09/10 08:13:55;;;;;;;39.90;17.73;;;19.40;99.90;;;;;;4915461;29;20501;-69
2023/09/10 08:16:21;;;;;;;39.47;17.80;;;19.40;99.90;;;;;;4930364;29;21025;-69
2023/09/10 08:18:49;;;;;;;38.00;18.17;;;19.50;99.90;;;;;;4934332;29;20494;-69
2023/09/10 08:21:16;;;;;;;36.27;17.17;;;19.60;99.90;;;;;;4924106;29;20476;-68
2023/09/10 08:23:44;;;;;;;35.43;17.90;;;19.70;99.90;;;;;;4924653;29;20547;-68
2023/09/10 08:26:13;;;;;;;35.30;17.80;;;19.80;99.90;;;;;;4933170;29;20834;-69
2023/09/10 08:28:39;;;;;;;37.93;17.63;;;19.80;99.90;;;;;;4921189;29;20477;-69
2023/09/10 08:31:06;;;;;;;39.00;18.67;;;19.80;99.90;;;;;;4923948;29;20478;-69
2023/09/10 08:33:33;;;;;;;45.13;17.70;;;19.90;99.90;;;;;;4916499;29;20497;-69
2023/09/10 08:36:01;;;;;;;51.70;20.37;;;19.90;99.90;;;;;;4925776;29;20487;-69
2023/09/10 08:38:28;;;;;;;40.30;19.43;;;20.00;99.90;;;;;;4915501;29;20465;-69
2023/09/10 08:41:05;;;;;;;42.33;19.10;;;20.00;99.90;;;;;;4916621;29;20469;-69
2023/09/10 08:43:40;;;;;;;38.20;19.97;;;20.00;99.90;;;;;;4929343;29;20548;-69
2023/09/10 08:46:10;;;;;;;36.77;17.77;;;20.10;99.90;;;;;;4915283;29;20458;-69
2023/09/10 08:48:39;;;;;;;33.97;17.33;;;20.10;99.90;;;;;;4926211;29;20474;-69
2023/09/10 08:51:08;;;;;;;31.00;16.70;;;20.20;99.90;;;;;;4918120;29;20879;-69
2023/09/10 08:53:36;;;;;;;44.90;19.27;;;20.30;99.90;;;;;;4921347;29;20505;-69
2023/09/10 08:56:03;;;;;;;31.07;15.97;;;20.40;99.90;;;;;;4915772;29;20466;-69
2023/09/10 08:58:33;;;;;;;32.07;16.60;;;20.60;99.90;;;;;;4930163;29;20470;-69
2023/09/10 09:01:01;;;;;;;35.70;17.73;;;20.70;99.90;;;;;;4915364;29;20467;-69
2023/09/10 09:03:28;;;;;;;32.53;17.43;;;20.90;99.90;;;;;;4928296;29;20486;-69
2023/09/10 09:05:58;;;;;;;25.53;15.13;;;21.10;99.90;;;;;;4931579;29;20485;-69
2023/09/10 09:08:30;;;;;;;34.23;16.90;;;21.10;99.90;;;;;;4914812;29;20474;-69
2023/09/10 09:10:59;;;;;;;34.10;16.17;;;21.10;99.90;;;;;;4918752;29;20477;-70
2023/09/10 09:13:28;;;;;;;33.27;16.60;;;21.10;99.90;;;;;;4919511;29;20501;-69
2023/09/10 09:15:57;;;;;;;32.37;16.73;;;21.10;99.90;;;;;;4923361;29;20469;-69
2023/09/10 09:18:24;;;;;;;35.30;17.80;;;21.10;99.90;;;;;;4915444;29;20498;-70
2023/09/10 09:20:52;;;;;;;24.43;15.80;;;21.00;99.90;;;;;;4915651;29;20458;-70
2023/09/10 09:23:23;;;;;;;24.27;15.30;;;21.10;99.90;;;;;;4925040;29;20489;-70
2023/09/10 09:25:52;;;;;;;30.87;15.63;;;21.00;99.90;;;;;;4918797;29;20459;-70
2023/09/10 09:28:19;;;;;;;29.97;15.00;;;21.10;99.90;;;;;;4927119;29;20465;-69
2023/09/10 09:30:46;;;;;;;25.33;15.30;;;21.10;99.90;;;;;;4922445;29;20462;-69
2023/09/10 09:33:12;;;;;;;28.07;14.60;;;21.10;99.90;;;;;;4922086;29;20492;-69
2023/09/10 09:35:39;;;;;;;22.70;14.47;;;21.10;99.90;;;;;;4926717;29;20470;-70
2023/09/10 09:38:06;;;;;;;22.17;12.50;;;21.10;99.90;;;;;;4919314;29;20470;-70
2023/09/10 09:40:35;;;;;;;32.53;14.43;;;21.10;99.90;;;;;;4919542;29;20476;-70
2023/09/10 09:43:06;;;;;;;24.23;13.57;;;21.20;99.90;;;;;;4918960;29;20480;-70
2023/09/10 09:45:33;;;;;;;20.50;14.00;;;21.20;99.90;;;;;;4918782;29;20466;-69
2023/09/10 09:48:00;;;;;;;23.90;13.80;;;21.20;99.90;;;;;;4918786;29;20521;-69
2023/09/10 09:50:27;;;;;;;20.00;12.53;;;21.30;99.90;;;;;;4918376;29;20465;-70
2023/09/10 09:52:55;;;;;;;19.70;12.73;;;21.30;99.90;;;;;;4918067;29;20521;-69
2023/09/10 09:55:22;;;;;;;18.77;12.97;;;21.40;99.90;;;;;;4918185;29;21086;-69
2023/09/10 09:57:49;;;;;;;15.97;11.63;;;21.40;99.90;;;;;;4924907;29;20480;-69
2023/09/10 10:00:18;;;;;;;24.13;12.90;;;21.50;99.90;;;;;;4937279;29;20465;-69
2023/09/10 10:02:45;;;;;;;19.33;11.50;;;21.50;99.90;;;;;;4930765;29;20482;-69
2023/09/10 10:05:13;;;;;;;18.57;12.00;;;21.60;99.90;;;;;;4930060;29;20489;-69
2023/09/10 10:07:41;;;;;;;20.93;12.20;;;21.60;99.90;;;;;;4935395;29;20493;-69
2023/09/10 10:10:09;;;;;;;17.70;12.07;;;21.70;99.90;;;;;;4918065;29;20562;-69
2023/09/10 10:12:37;;;;;;;16.13;11.57;;;21.80;99.90;;;;;;4925756;29;20475;-70
2023/09/10 10:15:05;;;;;;;19.57;10.80;;;21.80;99.90;;;;;;4923103;29;20509;-68
2023/09/10 10:17:33;;;;;;;14.73;10.70;;;21.90;99.90;;;;;;4917630;29;20473;-68
2023/09/10 10:20:04;;;;;;;13.60;10.83;;;22.00;99.90;;;;;;4917347;29;20470;-69
2023/09/10 10:22:32;;;;;;;18.07;12.60;;;22.10;99.90;;;;;;4924225;29;20482;-68
2023/09/10 10:25:00;;;;;;;18.43;11.03;;;22.10;99.90;;;;;;4931807;29;20840;-68
2023/09/10 10:27:28;;;;;;;19.37;13.20;;;22.10;99.90;;;;;;4923927;29;20789;-68
2023/09/10 10:29:54;;;;;;;17.80;11.67;;;22.20;99.90;;;;;;4921238;29;20467;-69
2023/09/10 10:32:27;;;;;;;20.27;12.47;;;22.30;99.90;;;;;;4925996;29;20484;-68
2023/09/10 10:34:58;;;;;;;16.70;11.97;;;22.30;99.90;;;;;;4931014;29;20581;-69
2023/09/10 10:37:33;;;;;;;22.43;13.77;;;22.30;99.90;;;;;;4925949;29;20478;-68
2023/09/10 10:40:07;;;;;;;19.83;12.83;;;22.30;99.90;;;;;;4933350;29;20477;-69
2023/09/10 10:42:40;;;;;;;23.43;13.27;;;22.40;99.90;;;;;;4925468;29;20969;-69
2023/09/10 10:45:07;;;;;;;16.87;10.70;;;22.50;99.90;;;;;;4924479;29;20487;-68
2023/09/10 10:47:38;;;;;;;21.83;13.37;;;22.50;99.90;;;;;;4936361;29;20534;-69
2023/09/10 10:50:10;;;;;;;18.77;12.30;;;22.60;99.90;;;;;;4924361;29;20508;-69
2023/09/10 10:52:41;;;;;;;19.10;12.33;;;22.70;99.90;;;;;;4922581;29;20560;-69
2023/09/10 10:55:09;;;;;;;19.20;13.87;;;22.70;99.90;;;;;;4920221;29;20494;-69
2023/09/10 10:57:37;;;;;;;19.80;13.27;;;22.70;99.90;;;;;;4922001;29;20995;-68
2023/09/10 11:00:08;;;;;;;12.93;10.80;;;22.70;99.90;;;;;;4930224;29;20584;-68
2023/09/10 11:02:35;;;;;;;17.47;12.37;;;22.80;99.90;;;;;;4924052;29;20526;-68
2023/09/10 11:05:04;;;;;;;18.90;12.70;;;22.90;99.90;;;;;;4935823;29;20475;-69
2023/09/10 11:07:33;;;;;;;16.40;11.83;;;22.90;99.90;;;;;;4923914;29;20920;-68
2023/09/10 11:10:01;;;;;;;18.93;12.40;;;22.90;99.90;;;;;;4916496;29;20471;-68
2023/09/10 11:12:28;;;;;;;18.00;11.70;;;22.90;99.90;;;;;;4916571;29;21008;-69
2023/09/10 11:15:07;;;;;;;18.10;12.17;;;22.90;99.90;;;;;;4927554;29;20504;-68
2023/09/10 11:17:35;;;;;;;16.93;13.03;;;23.00;99.90;;;;;;4927029;29;20836;-68
2023/09/10 11:20:03;;;;;;;21.13;12.37;;;23.00;99.90;;;;;;4933594;29;20475;-68
2023/09/10 11:23:05;;;;;;;13.57;12.17;;;23.00;99.90;;;;;;4927652;29;20475;-69
2023/09/10 11:25:33;;;;;;;17.97;11.70;;;23.10;99.90;;;;;;4925827;29;20967;-69
2023/09/10 11:28:00;;;;;;;23.40;13.63;;;23.10;99.90;;;;;;4916481;29;20960;-69
2023/09/10 11:30:27;;;;;;;16.57;11.37;;;23.10;99.90;;;;;;4924472;29;20482;-69
2023/09/10 11:33:36;;;;;;;18.20;12.30;;;23.10;99.90;;;;;;4916384;29;20465;-68
2023/09/10 11:36:05;;;;;;;17.17;11.33;;;23.20;99.90;;;;;;4889697;29;20465;-69
2023/09/10 11:38:33;;;;;;;15.57;10.63;;;23.20;99.90;;;;;;4916270;29;20463;-69
2023/09/10 11:41:00;;;;;;;17.93;12.37;;;23.20;99.90;;;;;;4918923;29;20587;-69
2023/09/10 11:43:29;;;;;;;15.57;10.77;;;23.30;99.90;;;;;;4916217;29;20482;-69
2023/09/10 11:45:55;;;;;;;13.93;10.83;;;23.30;99.90;;;;;;4926015;29;20469;-69
2023/09/10 11:48:22;;;;;;;14.97;9.93;;;23.40;99.90;;;;;;4933165;29;21002;-68
2023/09/10 11:50:51;;;;;;;11.53;10.33;;;23.40;99.90;;;;;;4934395;29;20497;-69
2023/09/10 11:53:19;;;;;;;14.57;10.53;;;23.50;99.90;;;;;;4916472;29;20465;-68
2023/09/10 11:55:48;;;;;;;14.97;10.73;;;23.50;99.90;;;;;;4915779;29;20467;-68
2023/09/10 11:58:15;;;;;;;12.30;9.80;;;23.50;99.90;;;;;;4919834;29;20971;-68
2023/09/10 12:00:44;;;;;;;15.03;10.07;;;23.50;99.90;;;;;;4929627;29;20979;-69
2023/09/10 12:03:11;;;;;;;15.80;10.50;;;23.60;99.90;;;;;;4921523;29;20483;-68
2023/09/10 12:05:38;;;;;;;13.40;10.37;;;23.60;99.90;;;;;;4928803;29;20470;-69
2023/09/10 12:08:05;;;;;;;13.70;11.30;;;23.70;99.90;;;;;;4914788;29;20469;-67
2023/09/10 12:10:33;;;;;;;11.50;8.30;;;23.70;99.90;;;;;;4925134;29;20679;-69
2023/09/10 12:13:03;;;;;;;12.90;8.93;;;23.80;99.90;;;;;;4920267;29;20845;-68
2023/09/10 12:15:33;;;;;;;15.23;10.93;;;23.90;99.90;;;;;;4923900;29;20472;-68
2023/09/10 12:18:04;;;;;;;12.90;9.33;;;23.90;99.90;;;;;;4919065;29;20217;-68
2023/09/10 12:20:32;;;;;;;11.63;9.13;;;23.90;99.90;;;;;;4923462;29;20475;-68
2023/09/10 12:22:58;;;;;;;8.53;7.73;;;23.90;99.90;;;;;;4917815;29;20483;-69
2023/09/10 12:25:25;;;;;;;13.57;9.00;;;23.90;99.90;;;;;;4929292;29;20470;-69
2023/09/10 12:27:53;;;;;;;8.77;7.97;;;23.90;99.90;;;;;;4919186;29;20473;-70
2023/09/10 12:30:22;;;;;;;9.97;7.43;;;24.00;99.90;;;;;;4933249;29;20972;-69
2023/09/10 12:32:48;;;;;;;10.07;8.83;;;24.00;99.90;;;;;;4933651;29;20468;-69
2023/09/10 12:35:16;;;;;;;8.97;7.30;;;24.10;99.90;;;;;;4925036;29;20486;-69
2023/09/10 12:37:48;;;;;;;10.00;6.93;;;24.20;99.90;;;;;;4915092;29;20478;-69
2023/09/10 12:40:16;;;;;;;13.23;9.47;;;24.30;99.90;;;;;;4914533;29;20849;-69
2023/09/10 12:42:43;;;;;;;11.00;9.57;;;24.30;99.90;;;;;;4914805;29;20935;-68
2023/09/10 12:45:10;;;;;;;11.07;8.97;;;24.30;99.90;;;;;;4916659;29;20554;-69
2023/09/10 12:47:39;;;;;;;11.60;9.10;;;24.30;99.90;;;;;;4914869;29;20858;-68
2023/09/10 12:50:07;;;;;;;9.57;8.00;;;24.40;99.90;;;;;;4914412;29;20529;-68
2023/09/10 12:52:34;;;;;;;10.77;8.57;;;24.40;99.90;;;;;;4914453;29;21013;-68
2023/09/10 12:55:01;;;;;;;10.10;8.60;;;24.40;99.90;;;;;;4916473;29;20843;-68
2023/09/10 12:57:31;;;;;;;9.00;8.00;;;24.40;99.90;;;;;;4914265;29;20496;-68
2023/09/10 12:59:58;;;;;;;7.77;6.97;;;24.50;99.90;;;;;;4914193;29;20810;-68
2023/09/10 13:02:24;;;;;;;8.70;7.87;;;24.50;99.90;;;;;;4924624;29;20798;-68
2023/09/10 13:04:54;;;;;;;10.03;8.30;;;24.60;99.90;;;;;;4932358;29;20498;-68
2023/09/10 13:07:20;;;;;;;11.57;8.20;;;24.50;99.90;;;;;;4933136;29;20979;-68
2023/09/10 13:09:47;;;;;;;10.73;8.13;;;24.60;99.90;;;;;;4933305;29;20489;-68
2023/09/10 13:12:14;;;;;;;11.77;8.67;;;24.60;99.90;;;;;;4930329;29;20477;-68
2023/09/10 13:14:41;;;;;;;9.68;8.77;;;24.60;99.90;;;;;;4918359;29;20467;-68
2023/09/10 13:17:07;;;;;;;9.37;8.53;;;24.70;99.90;;;;;;4924538;29;20218;-68
2023/09/10 13:19:34;;;;;;;8.13;7.33;;;24.70;99.90;;;;;;4921597;29;20486;-69
2023/09/10 13:22:03;;;;;;;10.17;7.67;;;24.70;99.90;;;;;;4928636;29;20475;-68
2023/09/10 13:24:30;;;;;;;7.63;6.93;;;24.70;99.90;;;;;;4933411;29;20480;-68
2023/09/10 13:26:57;;;;;;;8.00;6.63;;;24.70;99.90;;;;;;4936514;29;20477;-68
2023/09/10 13:29:23;;;;;;;8.73;7.80;;;24.70;99.90;;;;;;4932819;29;20471;-68
2023/09/10 13:31:52;;;;;;;6.70;6.10;;;24.70;99.90;;;;;;4923746;29;20471;-69
2023/09/10 13:34:18;;;;;;;7.00;6.37;;;24.70;99.90;;;;;;4928945;29;20519;-68
2023/09/10 13:36:45;;;;;;;6.63;6.07;;;24.70;99.90;;;;;;4933147;29;20467;-69
2023/09/10 13:39:13;;;;;;;7.70;6.90;;;24.70;99.90;;;;;;4932710;29;20478;-69
2023/09/10 13:41:40;;;;;;;7.90;7.10;;;24.70;99.90;;;;;;4925323;29;20895;-69
2023/09/10 13:44:06;;;;;;;7.13;6.40;;;24.70;99.90;;;;;;4919359;29;20487;-69
2023/09/10 13:46:34;;;;;;;7.57;6.37;;;24.70;99.90;;;;;;4932642;29;20566;-69
2023/09/10 13:49:01;;;;;;;7.63;5.50;;;24.80;99.90;;;;;;4933008;29;20513;-69
2023/09/10 13:51:28;;;;;;;6.70;5.00;;;24.80;99.90;;;;;;4929909;29;20462;-70
2023/09/10 13:53:54;;;;;;;5.80;5.30;;;24.80;99.90;;;;;;4930177;29;20495;-69
2023/09/10 13:56:24;;;;;;;6.20;5.60;;;24.80;99.90;;;;;;4924141;29;20469;-70
2023/09/10 13:58:50;;;;;;;7.80;6.20;;;24.80;99.90;;;;;;4929580;29;20467;-70
2023/09/10 14:01:17;;;;;;;6.97;6.37;;;24.90;99.90;;;;;;4925458;29;20471;-70
2023/09/10 14:03:44;;;;;;;5.00;4.60;;;24.90;99.90;;;;;;4919515;29;20490;-70
2023/09/10 14:06:10;;;;;;;6.23;5.77;;;24.80;99.90;;;;;;4931425;29;20469;-70
2023/09/10 14:08:37;;;;;;;6.53;5.40;;;24.80;99.90;;;;;;4929961;29;20474;-69
2023/09/10 14:11:04;;;;;;;5.73;5.33;;;24.90;99.90;;;;;;4934256;29;20464;-70
2023/09/10 14:13:32;;;;;;;5.93;5.27;;;24.90;99.90;;;;;;4937733;29;20507;-70
2023/09/10 14:15:59;;;;;;;5.90;5.40;;;25.00;99.90;;;;;;4936021;29;20496;-70
2023/09/10 14:18:25;;;;;;;6.20;5.30;;;25.00;99.90;;;;;;4926882;29;20473;-70
2023/09/10 14:20:52;;;;;;;5.77;5.37;;;25.00;99.90;;;;;;4929285;29;20898;-70
2023/09/10 14:23:19;;;;;;;6.40;5.90;;;25.00;99.90;;;;;;4932962;29;20542;-70
2023/09/10 14:25:48;;;;;;;5.43;5.03;;;25.00;99.90;;;;;;4926954;29;20469;-69
2023/09/10 14:28:15;;;;;;;5.67;5.27;;;25.00;99.90;;;;;;4924660;29;20910;-69
2023/09/10 14:30:43;;;;;;;5.40;5.00;;;25.00;99.90;;;;;;4927115;29;20474;-70
2023/09/10 14:33:10;;;;;;;6.30;5.80;;;25.00;99.90;;;;;;4931369;29;20487;-69
2023/09/10 14:35:37;;;;;;;7.37;4.67;;;25.00;99.90;;;;;;4935244;29;20512;-70
2023/09/10 14:38:04;;;;;;;6.60;6.00;;;25.10;99.90;;;;;;4920049;29;20523;-69
2023/09/10 14:40:31;;;;;;;7.00;6.40;;;25.10;99.90;;;;;;4924226;29;20471;-69
2023/09/10 14:42:58;;;;;;;6.70;6.20;;;25.00;99.90;;;;;;4924929;29;20472;-69
2023/09/10 14:45:25;;;;;;;8.37;7.03;;;25.00;99.90;;;;;;4920663;29;20492;-69
2023/09/10 14:47:53;;;;;;;6.30;5.73;;;25.00;99.90;;;;;;4920521;29;20470;-69
2023/09/10 14:50:20;;;;;;;6.13;5.57;;;25.00;99.90;;;;;;4923849;29;20969;-69
2023/09/10 14:52:47;;;;;;;7.20;6.53;;;25.00;99.90;;;;;;4931443;29;20466;-70
2023/09/10 14:55:14;;;;;;;6.50;5.90;;;24.90;99.90;;;;;;4926690;29;20851;-69
2023/09/10 14:57:41;;;;;;;7.07;6.30;;;25.00;99.90;;;;;;4934170;29;20475;-70
2023/09/10 15:00:08;;;;;;;7.70;6.83;;;25.00;99.90;;;;;;4931277;29;20473;-69
2023/09/10 15:02:35;;;;;;;9.00;6.40;;;25.00;99.90;;;;;;4928468;29;20935;-70
2023/09/10 15:05:03;;;;;;;9.00;6.67;;;24.90;99.90;;;;;;4929585;29;20829;-69
2023/09/10 15:07:30;;;;;;;7.60;6.87;;;25.00;99.90;;;;;;4932963;29;20964;-70
2023/09/10 15:09:56;;;;;;;7.83;7.13;;;25.00;99.90;;;;;;4927143;29;21114;-69
2023/09/10 15:12:23;;;;;;;8.50;7.70;;;25.00;99.90;;;;;;4934604;29;20480;-70
2023/09/10 15:14:50;;;;;;;7.00;6.43;;;24.90;99.90;;;;;;4934860;29;20864;-69
2023/09/10 15:17:16;;;;;;;7.80;7.10;;;25.00;99.90;;;;;;4934968;29;20472;-70
2023/09/10 15:19:43;;;;;;;8.90;8.10;;;25.00;99.90;;;;;;4925596;29;20576;-70
2023/09/10 15:22:11;;;;;;;7.53;6.73;;;25.00;99.90;;;;;;4927674;29;20478;-69
2023/09/10 15:24:38;;;;;;;7.00;6.30;;;24.90;99.90;;;;;;4921536;29;20853;-69
2023/09/10 15:27:05;;;;;;;9.13;6.80;;;24.90;99.90;;;;;;4928421;29;20467;-70
2023/09/10 15:29:32;;;;;;;7.07;6.37;;;24.90;99.90;;;;;;4932478;29;20991;-69
2023/09/10 15:31:59;;;;;;;6.20;5.60;;;24.90;99.90;;;;;;4926996;29;20467;-69
2023/09/10 15:34:26;;;;;;;6.03;5.10;;;24.80;99.90;;;;;;4929038;29;20485;-69
2023/09/10 15:36:52;;;;;;;7.20;6.10;;;24.80;99.90;;;;;;4931299;29;20477;-69
2023/09/10 15:39:20;;;;;;;6.70;6.20;;;24.80;99.90;;;;;;4927218;29;20483;-69
2023/09/10 15:41:46;;;;;;;6.30;5.80;;;24.70;99.90;;;;;;4919937;29;20995;-69
2023/09/10 15:44:14;;;;;;;5.93;5.43;;;24.70;99.90;;;;;;4927029;29;20492;-69
2023/09/10 15:46:41;;;;;;;5.80;5.37;;;24.70;99.90;;;;;;4916406;29;20990;-69
2023/09/10 15:49:08;;;;;;;6.60;6.00;;;24.70;99.90;;;;;;4915653;29;20489;-70
2023/09/10 15:51:34;;;;;;;7.17;6.57;;;24.70;99.90;;;;;;4917382;29;20464;-70
2023/09/10 15:54:01;;;;;;;5.70;5.23;;;24.70;99.90;;;;;;4917431;29;20488;-70
2023/09/10 15:56:29;;;;;;;6.37;5.77;;;24.70;99.90;;;;;;4927734;29;20495;-70
2023/09/10 15:58:56;;;;;;;6.90;6.20;;;24.70;99.90;;;;;;4934568;29;20473;-69
2023/09/10 16:01:23;;;;;;;6.73;6.13;;;24.70;99.90;;;;;;4932546;29;20467;-70
2023/09/10 16:03:49;;;;;;;6.53;5.83;;;24.70;99.90;;;;;;4918360;29;20496;-69
2023/09/10 16:06:16;;;;;;;7.33;6.73;;;24.70;99.90;;;;;;4915355;29;20467;-69
2023/09/10 16:08:43;;;;;;;7.33;6.47;;;24.70;99.90;;;;;;4915480;29;20502;-69
2023/09/10 16:11:09;;;;;;;8.90;7.97;;;24.70;99.90;;;;;;4915262;29;20940;-70
2023/09/10 16:13:39;;;;;;;12.03;9.10;;;24.70;99.90;;;;;;4932734;29;20501;-69
2023/09/10 16:16:05;;;;;;;9.70;8.70;;;24.70;99.90;;;;;;4934045;29;20487;-70
2023/09/10 16:18:32;;;;;;;9.50;8.40;;;24.70;99.90;;;;;;4934208;23;20836;-71
2023/09/10 16:20:59;;;;;;;9.90;8.97;;;24.70;99.90;;;;;;4914481;29;20947;-71
2023/09/10 16:23:26;;;;;;;9.30;8.50;;;24.70;99.90;;;;;;4908098;29;20464;-71
2023/09/10 16:25:52;;;;;;;9.77;7.77;;;24.70;99.90;;;;;;4913959;29;20904;-70
2023/09/10 16:28:19;;;;;;;9.80;8.90;;;24.60;99.90;;;;;;4916510;29;20498;-71
2023/09/10 16:30:47;;;;;;;8.07;7.27;;;24.50;99.90;;;;;;4932004;29;20469;-72
2023/09/10 16:33:14;;;;;;;8.93;8.03;;;24.50;99.90;;;;;;4933665;29;20471;-72
2023/09/10 16:35:42;;;;;;;17.93;12.27;;;24.50;99.90;;;;;;4932906;29;20490;-70
2023/09/10 16:38:08;;;;;;;18.20;14.87;;;24.50;99.90;;;;;;4934144;29;20995;-70